sensor_id;sensor_type;location;lat;lon;timestamp;P1;durP1;ratioP1;P2;durP2;ratioP2
26822;SDS011;14852;51.910;8.878;2023-07-30T00:02:17;4.65;;;2.10;;
26822;SDS011;14852;51.910;8.878;2023-07-30T00:04:44;3.33;;;2.15;;
26822;SDS011;14852;51.910;8.878;2023-07-30T00:07:10;5.65;;;2.42;;
26822;SDS011;14852;51.910;8.878;2023-07-30T00:09:37;7.82;;;2.45;;
26822;SDS011;14852;51.910;8.878;2023-07-30T00:12:07;2.53;;;2.10;;
26822;SDS011;14852;51.910;8.878;2023-07-30T00:14:34;3.13;;;2.53;;
26822;SDS011;14852;51.910;8.878;2023-07-30T00:17:00;4.93;;;2.60;;
26822;SDS011;14852;51.910;8.878;2023-07-30T00:19:26;3.75;;;2.97;;
26822;SDS011;14852;51.910;8.878;2023-07-30T00:21:52;3.00;;;2.35;;
26822;SDS011;14852;51.910;8.878;2023-07-30T00:24:18;4.07;;;3.05;;
26822;SDS011;14852;51.910;8.878;2023-07-30T00:26:44;3.15;;;2.70;;
26822;SDS011;14852;51.910;8.878;2023-07-30T00:29:09;4.72;;;3.35;;
26822;SDS011;14852;51.910;8.878;2023-07-30T00:31:36;3.63;;;2.95;;
26822;SDS011;14852;51.910;8.878;2023-07-30T00:34:01;3.63;;;2.75;;
26822;SDS011;14852;51.910;8.878;2023-07-30T00:36:27;3.17;;;2.88;;
26822;SDS011;14852;51.910;8.878;2023-07-30T00:38:53;3.25;;;2.75;;
26822;SDS011;14852;51.910;8.878;2023-07-30T00:41:19;3.42;;;3.10;;
26822;SDS011;14852;51.910;8.878;2023-07-30T00:43:45;7.18;;;3.70;;
26822;SDS011;14852;51.910;8.878;2023-07-30T00:46:11;4.70;;;4.30;;
26822;SDS011;14852;51.910;8.878;2023-07-30T00:48:39;4.00;;;3.60;;
26822;SDS011;14852;51.910;8.878;2023-07-30T00:51:05;5.90;;;3.63;;
26822;SDS011;14852;51.910;8.878;2023-07-30T00:53:32;4.28;;;3.55;;
26822;SDS011;14852;51.910;8.878;2023-07-30T00:55:58;4.30;;;3.80;;
26822;SDS011;14852;51.910;8.878;2023-07-30T00:58:24;4.95;;;3.88;;
26822;SDS011;14852;51.910;8.878;2023-07-30T01:00:54;5.20;;;4.70;;
26822;SDS011;14852;51.910;8.878;2023-07-30T01:03:20;5.15;;;4.00;;
26822;SDS011;14852;51.910;8.878;2023-07-30T01:05:46;5.50;;;3.55;;
26822;SDS011;14852;51.910;8.878;2023-07-30T01:08:12;3.63;;;3.30;;
26822;SDS011;14852;51.910;8.878;2023-07-30T01:10:38;4.47;;;3.60;;
26822;SDS011;14852;51.910;8.878;2023-07-30T01:13:06;3.67;;;2.85;;
26822;SDS011;14852;51.910;8.878;2023-07-30T01:15:34;4.90;;;3.80;;
26822;SDS011;14852;51.910;8.878;2023-07-30T01:18:01;4.60;;;3.00;;
26822;SDS011;14852;51.910;8.878;2023-07-30T01:20:30;3.92;;;3.28;;
26822;SDS011;14852;51.910;8.878;2023-07-30T01:22:57;6.40;;;3.33;;
26822;SDS011;14852;51.910;8.878;2023-07-30T01:25:24;4.22;;;3.42;;
26822;SDS011;14852;51.910;8.878;2023-07-30T01:27:56;3.83;;;3.25;;
26822;SDS011;14852;51.910;8.878;2023-07-30T01:30:30;4.28;;;2.72;;
26822;SDS011;14852;51.910;8.878;2023-07-30T01:33:02;2.95;;;2.35;;
26822;SDS011;14852;51.910;8.878;2023-07-30T01:35:30;6.05;;;3.50;;
26822;SDS011;14852;51.910;8.878;2023-07-30T01:37:56;4.68;;;3.30;;
26822;SDS011;14852;51.910;8.878;2023-07-30T01:40:23;3.72;;;3.33;;
26822;SDS011;14852;51.910;8.878;2023-07-30T01:42:49;3.60;;;2.95;;
26822;SDS011;14852;51.910;8.878;2023-07-30T01:45:16;4.47;;;2.90;;
26822;SDS011;14852;51.910;8.878;2023-07-30T01:47:42;3.72;;;2.63;;
26822;SDS011;14852;51.910;8.878;2023-07-30T01:50:08;4.53;;;3.10;;
26822;SDS011;14852;51.910;8.878;2023-07-30T01:52:35;3.58;;;2.50;;
26822;SDS011;14852;51.910;8.878;2023-07-30T01:55:01;9.77;;;3.55;;
26822;SDS011;14852;51.910;8.878;2023-07-30T01:57:27;4.57;;;2.58;;
26822;SDS011;14852;51.910;8.878;2023-07-30T01:59:53;4.25;;;2.90;;
26822;SDS011;14852;51.910;8.878;2023-07-30T02:02:18;7.72;;;3.42;;
26822;SDS011;14852;51.910;8.878;2023-07-30T02:04:44;4.22;;;3.47;;
26822;SDS011;14852;51.910;8.878;2023-07-30T02:07:10;4.90;;;3.90;;
26822;SDS011;14852;51.910;8.878;2023-07-30T02:09:36;6.05;;;5.13;;
26822;SDS011;14852;51.910;8.878;2023-07-30T02:12:02;8.55;;;6.40;;
26822;SDS011;14852;51.910;8.878;2023-07-30T02:14:27;8.25;;;7.45;;
26822;SDS011;14852;51.910;8.878;2023-07-30T02:16:59;8.55;;;7.07;;
26822;SDS011;14852;51.910;8.878;2023-07-30T02:19:25;9.00;;;7.90;;
26822;SDS011;14852;51.910;8.878;2023-07-30T02:21:51;9.95;;;8.95;;
26822;SDS011;14852;51.910;8.878;2023-07-30T02:24:16;11.32;;;10.10;;
26822;SDS011;14852;51.910;8.878;2023-07-30T02:26:42;10.48;;;9.40;;
26822;SDS011;14852;51.910;8.878;2023-07-30T02:29:08;12.25;;;10.70;;
26822;SDS011;14852;51.910;8.878;2023-07-30T02:31:34;13.48;;;11.30;;
26822;SDS011;14852;51.910;8.878;2023-07-30T02:33:59;13.30;;;11.38;;
26822;SDS011;14852;51.910;8.878;2023-07-30T02:36:25;12.75;;;11.38;;
26822;SDS011;14852;51.910;8.878;2023-07-30T02:38:51;14.65;;;11.95;;
26822;SDS011;14852;51.910;8.878;2023-07-30T02:41:17;15.23;;;12.23;;
26822;SDS011;14852;51.910;8.878;2023-07-30T02:43:42;12.23;;;10.93;;
26822;SDS011;14852;51.910;8.878;2023-07-30T02:46:08;12.63;;;11.35;;
26822;SDS011;14852;51.910;8.878;2023-07-30T02:48:34;14.18;;;11.60;;
26822;SDS011;14852;51.910;8.878;2023-07-30T02:51:00;13.18;;;11.52;;
26822;SDS011;14852;51.910;8.878;2023-07-30T02:53:26;12.77;;;11.40;;
26822;SDS011;14852;51.910;8.878;2023-07-30T02:55:51;13.65;;;12.35;;
26822;SDS011;14852;51.910;8.878;2023-07-30T02:58:18;14.57;;;13.07;;
26822;SDS011;14852;51.910;8.878;2023-07-30T03:00:43;13.65;;;11.90;;
26822;SDS011;14852;51.910;8.878;2023-07-30T03:03:09;11.70;;;10.50;;
26822;SDS011;14852;51.910;8.878;2023-07-30T03:05:35;12.30;;;11.05;;
26822;SDS011;14852;51.910;8.878;2023-07-30T03:08:01;10.20;;;9.23;;
26822;SDS011;14852;51.910;8.878;2023-07-30T03:10:27;10.15;;;8.32;;
26822;SDS011;14852;51.910;8.878;2023-07-30T03:12:52;9.93;;;8.27;;
26822;SDS011;14852;51.910;8.878;2023-07-30T03:15:18;8.27;;;7.47;;
26822;SDS011;14852;51.910;8.878;2023-07-30T03:17:44;8.02;;;6.68;;
26822;SDS011;14852;51.910;8.878;2023-07-30T03:20:10;7.22;;;6.32;;
26822;SDS011;14852;51.910;8.878;2023-07-30T03:22:37;7.95;;;6.28;;
26822;SDS011;14852;51.910;8.878;2023-07-30T03:25:03;6.68;;;5.93;;
26822;SDS011;14852;51.910;8.878;2023-07-30T03:27:29;7.65;;;6.20;;
26822;SDS011;14852;51.910;8.878;2023-07-30T03:29:55;7.68;;;6.50;;
26822;SDS011;14852;51.910;8.878;2023-07-30T03:32:21;6.88;;;5.65;;
26822;SDS011;14852;51.910;8.878;2023-07-30T03:34:48;6.80;;;5.30;;
26822;SDS011;14852;51.910;8.878;2023-07-30T03:37:13;6.35;;;5.07;;
26822;SDS011;14852;51.910;8.878;2023-07-30T03:39:39;7.07;;;5.25;;
26822;SDS011;14852;51.910;8.878;2023-07-30T03:42:05;5.78;;;5.18;;
26822;SDS011;14852;51.910;8.878;2023-07-30T03:44:31;6.45;;;5.32;;
26822;SDS011;14852;51.910;8.878;2023-07-30T03:46:56;5.95;;;5.18;;
26822;SDS011;14852;51.910;8.878;2023-07-30T03:49:22;6.80;;;5.63;;
26822;SDS011;14852;51.910;8.878;2023-07-30T03:51:48;6.20;;;5.40;;
26822;SDS011;14852;51.910;8.878;2023-07-30T03:54:14;6.82;;;6.13;;
26822;SDS011;14852;51.910;8.878;2023-07-30T03:56:40;7.47;;;5.80;;
26822;SDS011;14852;51.910;8.878;2023-07-30T03:59:07;7.65;;;5.50;;
26822;SDS011;14852;51.910;8.878;2023-07-30T04:01:33;6.10;;;5.50;;
26822;SDS011;14852;51.910;8.878;2023-07-30T04:03:59;7.60;;;6.53;;
26822;SDS011;14852;51.910;8.878;2023-07-30T04:06:24;8.63;;;4.95;;
26822;SDS011;14852;51.910;8.878;2023-07-30T04:08:50;6.03;;;4.72;;
26822;SDS011;14852;51.910;8.878;2023-07-30T04:11:16;6.20;;;4.15;;
26822;SDS011;14852;51.910;8.878;2023-07-30T04:13:41;5.90;;;3.80;;
26822;SDS011;14852;51.910;8.878;2023-07-30T04:16:07;3.88;;;2.70;;
26822;SDS011;14852;51.910;8.878;2023-07-30T04:18:33;5.63;;;3.08;;
26822;SDS011;14852;51.910;8.878;2023-07-30T04:20:59;4.82;;;3.65;;
26822;SDS011;14852;51.910;8.878;2023-07-30T04:23:25;6.30;;;3.03;;
26822;SDS011;14852;51.910;8.878;2023-07-30T04:25:51;6.00;;;3.00;;
26822;SDS011;14852;51.910;8.878;2023-07-30T04:28:17;10.60;;;3.22;;
26822;SDS011;14852;51.910;8.878;2023-07-30T04:30:43;4.05;;;2.80;;
26822;SDS011;14852;51.910;8.878;2023-07-30T04:33:10;4.63;;;2.58;;
26822;SDS011;14852;51.910;8.878;2023-07-30T04:35:37;3.60;;;2.60;;
26822;SDS011;14852;51.910;8.878;2023-07-30T04:38:05;5.22;;;2.90;;
26822;SDS011;14852;51.910;8.878;2023-07-30T04:40:31;4.13;;;3.13;;
26822;SDS011;14852;51.910;8.878;2023-07-30T04:42:57;5.68;;;3.30;;
26822;SDS011;14852;51.910;8.878;2023-07-30T04:45:23;4.18;;;3.70;;
26822;SDS011;14852;51.910;8.878;2023-07-30T04:47:50;5.20;;;2.53;;
26822;SDS011;14852;51.910;8.878;2023-07-30T04:50:16;4.35;;;2.22;;
26822;SDS011;14852;51.910;8.878;2023-07-30T04:52:41;3.17;;;2.20;;
26822;SDS011;14852;51.910;8.878;2023-07-30T04:55:07;7.57;;;2.92;;
26822;SDS011;14852;51.910;8.878;2023-07-30T04:57:33;5.03;;;2.60;;
26822;SDS011;14852;51.910;8.878;2023-07-30T05:00:00;5.75;;;2.80;;
26822;SDS011;14852;51.910;8.878;2023-07-30T05:02:26;5.82;;;2.65;;
26822;SDS011;14852;51.910;8.878;2023-07-30T05:04:52;4.00;;;2.63;;
26822;SDS011;14852;51.910;8.878;2023-07-30T05:07:17;4.82;;;2.42;;
26822;SDS011;14852;51.910;8.878;2023-07-30T05:09:43;4.63;;;2.72;;
26822;SDS011;14852;51.910;8.878;2023-07-30T05:12:09;6.40;;;2.88;;
26822;SDS011;14852;51.910;8.878;2023-07-30T05:14:35;5.93;;;2.60;;
26822;SDS011;14852;51.910;8.878;2023-07-30T05:17:01;4.78;;;2.97;;
26822;SDS011;14852;51.910;8.878;2023-07-30T05:19:27;2.47;;;2.13;;
26822;SDS011;14852;51.910;8.878;2023-07-30T05:21:53;4.10;;;2.33;;
26822;SDS011;14852;51.910;8.878;2023-07-30T05:24:19;4.88;;;2.95;;
26822;SDS011;14852;51.910;8.878;2023-07-30T05:26:45;6.47;;;2.78;;
26822;SDS011;14852;51.910;8.878;2023-07-30T05:29:10;4.47;;;2.75;;
26822;SDS011;14852;51.910;8.878;2023-07-30T05:31:36;6.13;;;3.10;;
26822;SDS011;14852;51.910;8.878;2023-07-30T05:34:02;4.50;;;2.90;;
26822;SDS011;14852;51.910;8.878;2023-07-30T05:36:28;4.88;;;2.75;;
26822;SDS011;14852;51.910;8.878;2023-07-30T05:38:54;5.68;;;2.72;;
26822;SDS011;14852;51.910;8.878;2023-07-30T05:41:19;5.22;;;2.72;;
26822;SDS011;14852;51.910;8.878;2023-07-30T05:43:46;5.22;;;3.10;;
26822;SDS011;14852;51.910;8.878;2023-07-30T05:46:12;3.97;;;2.83;;
26822;SDS011;14852;51.910;8.878;2023-07-30T05:48:41;3.65;;;2.80;;
26822;SDS011;14852;51.910;8.878;2023-07-30T05:51:07;4.32;;;2.47;;
26822;SDS011;14852;51.910;8.878;2023-07-30T05:53:32;3.35;;;2.58;;
26822;SDS011;14852;51.910;8.878;2023-07-30T05:55:58;3.38;;;2.20;;
26822;SDS011;14852;51.910;8.878;2023-07-30T05:58:24;7.20;;;2.70;;
26822;SDS011;14852;51.910;8.878;2023-07-30T06:00:50;4.30;;;2.63;;
26822;SDS011;14852;51.910;8.878;2023-07-30T06:03:15;3.65;;;2.17;;
26822;SDS011;14852;51.910;8.878;2023-07-30T06:05:41;4.45;;;2.47;;
26822;SDS011;14852;51.910;8.878;2023-07-30T06:08:08;6.80;;;3.45;;
26822;SDS011;14852;51.910;8.878;2023-07-30T06:10:37;4.00;;;2.45;;
26822;SDS011;14852;51.910;8.878;2023-07-30T06:13:05;9.18;;;2.75;;
26822;SDS011;14852;51.910;8.878;2023-07-30T06:15:31;6.45;;;2.67;;
26822;SDS011;14852;51.910;8.878;2023-07-30T06:17:58;7.25;;;2.60;;
26822;SDS011;14852;51.910;8.878;2023-07-30T06:20:26;4.07;;;2.50;;
26822;SDS011;14852;51.910;8.878;2023-07-30T06:22:51;7.75;;;3.15;;
26822;SDS011;14852;51.910;8.878;2023-07-30T06:25:17;5.15;;;2.30;;
26822;SDS011;14852;51.910;8.878;2023-07-30T06:27:43;6.60;;;3.03;;
26822;SDS011;14852;51.910;8.878;2023-07-30T06:30:09;4.13;;;2.83;;
26822;SDS011;14852;51.910;8.878;2023-07-30T06:32:36;4.97;;;2.20;;
26822;SDS011;14852;51.910;8.878;2023-07-30T06:35:01;5.93;;;2.78;;
26822;SDS011;14852;51.910;8.878;2023-07-30T06:37:28;5.13;;;2.58;;
26822;SDS011;14852;51.910;8.878;2023-07-30T06:39:53;6.72;;;3.28;;
26822;SDS011;14852;51.910;8.878;2023-07-30T06:42:19;4.47;;;2.75;;
26822;SDS011;14852;51.910;8.878;2023-07-30T06:44:45;7.05;;;2.60;;
26822;SDS011;14852;51.910;8.878;2023-07-30T06:47:11;4.53;;;3.17;;
26822;SDS011;14852;51.910;8.878;2023-07-30T06:49:36;4.28;;;2.55;;
26822;SDS011;14852;51.910;8.878;2023-07-30T06:52:02;4.13;;;2.72;;
26822;SDS011;14852;51.910;8.878;2023-07-30T06:54:29;5.60;;;2.97;;
26822;SDS011;14852;51.910;8.878;2023-07-30T06:56:55;5.70;;;3.17;;
26822;SDS011;14852;51.910;8.878;2023-07-30T06:59:21;4.75;;;2.30;;
26822;SDS011;14852;51.910;8.878;2023-07-30T07:01:46;3.75;;;2.30;;
26822;SDS011;14852;51.910;8.878;2023-07-30T07:04:12;5.07;;;2.80;;
26822;SDS011;14852;51.910;8.878;2023-07-30T07:06:38;6.07;;;2.95;;
26822;SDS011;14852;51.910;8.878;2023-07-30T07:09:04;6.30;;;2.65;;
26822;SDS011;14852;51.910;8.878;2023-07-30T07:11:29;4.60;;;2.67;;
26822;SDS011;14852;51.910;8.878;2023-07-30T07:13:55;4.97;;;2.38;;
26822;SDS011;14852;51.910;8.878;2023-07-30T07:16:21;6.65;;;2.85;;
26822;SDS011;14852;51.910;8.878;2023-07-30T07:18:47;7.30;;;2.78;;
26822;SDS011;14852;51.910;8.878;2023-07-30T07:21:14;3.75;;;2.20;;
26822;SDS011;14852;51.910;8.878;2023-07-30T07:23:40;3.47;;;2.30;;
26822;SDS011;14852;51.910;8.878;2023-07-30T07:26:06;4.03;;;2.58;;
26822;SDS011;14852;51.910;8.878;2023-07-30T07:28:31;4.88;;;2.38;;
26822;SDS011;14852;51.910;8.878;2023-07-30T07:30:57;5.22;;;2.65;;
26822;SDS011;14852;51.910;8.878;2023-07-30T07:33:23;4.40;;;2.20;;
26822;SDS011;14852;51.910;8.878;2023-07-30T07:35:49;4.78;;;2.33;;
26822;SDS011;14852;51.910;8.878;2023-07-30T07:38:14;3.58;;;2.78;;
26822;SDS011;14852;51.910;8.878;2023-07-30T07:40:40;5.43;;;2.63;;
26822;SDS011;14852;51.910;8.878;2023-07-30T07:43:07;4.82;;;2.70;;
26822;SDS011;14852;51.910;8.878;2023-07-30T07:45:33;3.67;;;2.65;;
26822;SDS011;14852;51.910;8.878;2023-07-30T07:47:59;3.75;;;2.53;;
26822;SDS011;14852;51.910;8.878;2023-07-30T07:50:25;4.70;;;2.83;;
26822;SDS011;14852;51.910;8.878;2023-07-30T07:52:51;5.25;;;3.08;;
26822;SDS011;14852;51.910;8.878;2023-07-30T07:55:17;6.38;;;3.05;;
26822;SDS011;14852;51.910;8.878;2023-07-30T07:57:43;7.97;;;3.08;;
26822;SDS011;14852;51.910;8.878;2023-07-30T08:00:08;5.05;;;2.92;;
26822;SDS011;14852;51.910;8.878;2023-07-30T08:02:40;4.22;;;3.35;;
26822;SDS011;14852;51.910;8.878;2023-07-30T08:05:06;5.32;;;3.03;;
26822;SDS011;14852;51.910;8.878;2023-07-30T08:07:32;4.95;;;2.92;;
26822;SDS011;14852;51.910;8.878;2023-07-30T08:09:58;5.25;;;3.35;;
26822;SDS011;14852;51.910;8.878;2023-07-30T08:12:24;6.68;;;3.55;;
26822;SDS011;14852;51.910;8.878;2023-07-30T08:14:50;5.95;;;3.88;;
26822;SDS011;14852;51.910;8.878;2023-07-30T08:17:16;9.00;;;3.95;;
26822;SDS011;14852;51.910;8.878;2023-07-30T08:19:43;5.63;;;3.35;;
26822;SDS011;14852;51.910;8.878;2023-07-30T08:22:09;5.85;;;3.35;;
26822;SDS011;14852;51.910;8.878;2023-07-30T08:24:35;8.02;;;3.72;;
26822;SDS011;14852;51.910;8.878;2023-07-30T08:27:00;6.32;;;3.63;;
26822;SDS011;14852;51.910;8.878;2023-07-30T08:29:26;6.43;;;4.43;;
26822;SDS011;14852;51.910;8.878;2023-07-30T08:31:52;5.80;;;3.97;;
26822;SDS011;14852;51.910;8.878;2023-07-30T08:34:18;7.07;;;3.47;;
26822;SDS011;14852;51.910;8.878;2023-07-30T08:36:43;4.80;;;3.50;;
26822;SDS011;14852;51.910;8.878;2023-07-30T08:39:10;7.50;;;3.60;;
26822;SDS011;14852;51.910;8.878;2023-07-30T08:41:35;9.68;;;3.63;;
26822;SDS011;14852;51.910;8.878;2023-07-30T08:44:01;8.13;;;4.03;;
26822;SDS011;14852;51.910;8.878;2023-07-30T08:46:27;6.13;;;4.57;;
26822;SDS011;14852;51.910;8.878;2023-07-30T08:48:53;10.65;;;5.32;;
26822;SDS011;14852;51.910;8.878;2023-07-30T08:51:19;7.30;;;4.47;;
26822;SDS011;14852;51.910;8.878;2023-07-30T08:53:47;8.68;;;4.72;;
26822;SDS011;14852;51.910;8.878;2023-07-30T08:56:13;7.40;;;5.03;;
26822;SDS011;14852;51.910;8.878;2023-07-30T08:58:39;8.40;;;5.38;;
26822;SDS011;14852;51.910;8.878;2023-07-30T09:01:08;7.28;;;6.45;;
26822;SDS011;14852;51.910;8.878;2023-07-30T09:03:37;9.95;;;5.38;;
26822;SDS011;14852;51.910;8.878;2023-07-30T09:06:05;8.57;;;4.70;;
26822;SDS011;14852;51.910;8.878;2023-07-30T09:08:31;6.90;;;5.40;;
26822;SDS011;14852;51.910;8.878;2023-07-30T09:11:10;6.53;;;5.07;;
26822;SDS011;14852;51.910;8.878;2023-07-30T09:13:36;8.77;;;4.93;;
26822;SDS011;14852;51.910;8.878;2023-07-30T09:16:10;9.80;;;4.82;;
26822;SDS011;14852;51.910;8.878;2023-07-30T09:18:41;10.68;;;5.32;;
26822;SDS011;14852;51.910;8.878;2023-07-30T09:21:11;6.53;;;4.38;;
26822;SDS011;14852;51.910;8.878;2023-07-30T09:23:42;9.50;;;5.40;;
26822;SDS011;14852;51.910;8.878;2023-07-30T09:26:09;7.20;;;5.25;;
26822;SDS011;14852;51.910;8.878;2023-07-30T09:28:42;10.27;;;5.30;;
26822;SDS011;14852;51.910;8.878;2023-07-30T09:31:08;6.90;;;4.43;;
26822;SDS011;14852;51.910;8.878;2023-07-30T09:33:35;5.75;;;3.50;;
26822;SDS011;14852;51.910;8.878;2023-07-30T09:36:08;6.43;;;3.50;;
26822;SDS011;14852;51.910;8.878;2023-07-30T09:38:43;4.10;;;2.70;;
26822;SDS011;14852;51.910;8.878;2023-07-30T09:41:11;6.85;;;3.83;;
26822;SDS011;14852;51.910;8.878;2023-07-30T09:43:37;4.90;;;2.38;;
26822;SDS011;14852;51.910;8.878;2023-07-30T09:46:04;6.53;;;2.95;;
26822;SDS011;14852;51.910;8.878;2023-07-30T09:48:32;3.95;;;2.90;;
26822;SDS011;14852;51.910;8.878;2023-07-30T09:50:59;5.70;;;3.05;;
26822;SDS011;14852;51.910;8.878;2023-07-30T09:53:32;6.32;;;3.38;;
26822;SDS011;14852;51.910;8.878;2023-07-30T09:56:00;5.43;;;4.05;;
26822;SDS011;14852;51.910;8.878;2023-07-30T09:58:27;8.40;;;4.72;;
26822;SDS011;14852;51.910;8.878;2023-07-30T10:00:55;8.13;;;5.63;;
26822;SDS011;14852;51.910;8.878;2023-07-30T10:03:24;6.82;;;6.13;;
26822;SDS011;14852;51.910;8.878;2023-07-30T10:05:53;8.98;;;7.05;;
26822;SDS011;14852;51.910;8.878;2023-07-30T10:08:27;10.27;;;7.18;;
26822;SDS011;14852;51.910;8.878;2023-07-30T10:11:06;10.65;;;7.00;;
26822;SDS011;14852;51.910;8.878;2023-07-30T10:13:35;8.27;;;6.40;;
26822;SDS011;14852;51.910;8.878;2023-07-30T10:16:02;9.13;;;6.07;;
26822;SDS011;14852;51.910;8.878;2023-07-30T10:18:43;7.53;;;6.50;;
26822;SDS011;14852;51.910;8.878;2023-07-30T10:21:10;7.82;;;6.22;;
26822;SDS011;14852;51.910;8.878;2023-07-30T10:23:50;8.77;;;5.90;;
26822;SDS011;14852;51.910;8.878;2023-07-30T10:26:33;6.20;;;4.88;;
26822;SDS011;14852;51.910;8.878;2023-07-30T10:29:14;6.73;;;4.77;;
26822;SDS011;14852;51.910;8.878;2023-07-30T10:31:42;6.85;;;5.05;;
26822;SDS011;14852;51.910;8.878;2023-07-30T10:34:25;7.75;;;4.32;;
26822;SDS011;14852;51.910;8.878;2023-07-30T10:37:07;6.82;;;4.93;;
26822;SDS011;14852;51.910;8.878;2023-07-30T10:39:33;7.57;;;5.82;;
26822;SDS011;14852;51.910;8.878;2023-07-30T10:42:00;7.95;;;5.15;;
26822;SDS011;14852;51.910;8.878;2023-07-30T10:44:32;11.20;;;6.85;;
26822;SDS011;14852;51.910;8.878;2023-07-30T10:47:00;10.65;;;7.03;;
26822;SDS011;14852;51.910;8.878;2023-07-30T10:49:28;9.27;;;6.32;;
26822;SDS011;14852;51.910;8.878;2023-07-30T10:51:54;6.82;;;6.15;;
26822;SDS011;14852;51.910;8.878;2023-07-30T10:54:22;9.75;;;5.28;;
26822;SDS011;14852;51.910;8.878;2023-07-30T10:56:49;9.15;;;6.38;;
26822;SDS011;14852;51.910;8.878;2023-07-30T10:59:16;7.75;;;6.15;;
26822;SDS011;14852;51.910;8.878;2023-07-30T11:01:44;9.10;;;6.18;;
26822;SDS011;14852;51.910;8.878;2023-07-30T11:04:17;7.45;;;5.65;;
26822;SDS011;14852;51.910;8.878;2023-07-30T11:06:46;8.35;;;6.03;;
26822;SDS011;14852;51.910;8.878;2023-07-30T11:09:21;9.48;;;6.13;;
26822;SDS011;14852;51.910;8.878;2023-07-30T11:11:49;6.72;;;5.05;;
26822;SDS011;14852;51.910;8.878;2023-07-30T11:14:17;9.60;;;5.20;;
26822;SDS011;14852;51.910;8.878;2023-07-30T11:16:48;6.88;;;4.35;;
26822;SDS011;14852;51.910;8.878;2023-07-30T11:19:16;7.18;;;4.70;;
26822;SDS011;14852;51.910;8.878;2023-07-30T11:21:50;6.45;;;4.95;;
26822;SDS011;14852;51.910;8.878;2023-07-30T11:24:19;5.22;;;4.60;;
26822;SDS011;14852;51.910;8.878;2023-07-30T11:26:45;7.13;;;4.97;;
26822;SDS011;14852;51.910;8.878;2023-07-30T11:29:16;6.95;;;4.53;;
26822;SDS011;14852;51.910;8.878;2023-07-30T11:31:44;6.47;;;4.57;;
26822;SDS011;14852;51.910;8.878;2023-07-30T11:34:11;8.18;;;5.30;;
26822;SDS011;14852;51.910;8.878;2023-07-30T11:36:39;6.90;;;4.22;;
26822;SDS011;14852;51.910;8.878;2023-07-30T11:39:07;8.57;;;4.32;;
26822;SDS011;14852;51.910;8.878;2023-07-30T11:41:33;5.22;;;3.25;;
26822;SDS011;14852;51.910;8.878;2023-07-30T11:44:00;8.10;;;4.32;;
26822;SDS011;14852;51.910;8.878;2023-07-30T11:46:26;7.80;;;3.83;;
26822;SDS011;14852;51.910;8.878;2023-07-30T11:48:52;6.13;;;4.30;;
26822;SDS011;14852;51.910;8.878;2023-07-30T11:51:34;6.20;;;4.07;;
26822;SDS011;14852;51.910;8.878;2023-07-30T11:54:00;7.68;;;4.13;;
26822;SDS011;14852;51.910;8.878;2023-07-30T11:56:28;5.45;;;3.38;;
26822;SDS011;14852;51.910;8.878;2023-07-30T11:58:56;4.75;;;3.90;;
26822;SDS011;14852;51.910;8.878;2023-07-30T12:01:24;6.72;;;4.15;;
26822;SDS011;14852;51.910;8.878;2023-07-30T12:03:58;4.40;;;3.17;;
26822;SDS011;14852;51.910;8.878;2023-07-30T12:06:38;7.22;;;3.92;;
26822;SDS011;14852;51.910;8.878;2023-07-30T12:12:00;6.47;;;3.30;;
26822;SDS011;14852;51.910;8.878;2023-07-30T12:17:14;6.55;;;2.90;;
26822;SDS011;14852;51.910;8.878;2023-07-30T12:19:40;6.50;;;2.90;;
26822;SDS011;14852;51.910;8.878;2023-07-30T12:22:06;4.60;;;2.85;;
26822;SDS011;14852;51.910;8.878;2023-07-30T12:24:33;4.93;;;2.50;;
26822;SDS011;14852;51.910;8.878;2023-07-30T12:26:59;5.10;;;2.70;;
26822;SDS011;14852;51.910;8.878;2023-07-30T12:29:25;4.03;;;2.70;;
26822;SDS011;14852;51.910;8.878;2023-07-30T12:31:51;6.18;;;2.40;;
26822;SDS011;14852;51.910;8.878;2023-07-30T12:34:18;4.45;;;2.75;;
26822;SDS011;14852;51.910;8.878;2023-07-30T12:36:45;7.20;;;2.50;;
26822;SDS011;14852;51.910;8.878;2023-07-30T12:39:11;5.30;;;2.47;;
26822;SDS011;14852;51.910;8.878;2023-07-30T12:41:37;4.32;;;3.05;;
26822;SDS011;14852;51.910;8.878;2023-07-30T12:44:02;5.25;;;3.13;;
26822;SDS011;14852;51.910;8.878;2023-07-30T12:46:29;3.05;;;2.28;;
26822;SDS011;14852;51.910;8.878;2023-07-30T12:48:57;4.00;;;2.33;;
26822;SDS011;14852;51.910;8.878;2023-07-30T12:51:29;5.38;;;2.40;;
26822;SDS011;14852;51.910;8.878;2023-07-30T12:53:56;4.95;;;2.42;;
26822;SDS011;14852;51.910;8.878;2023-07-30T12:56:22;4.13;;;2.20;;
26822;SDS011;14852;51.910;8.878;2023-07-30T12:58:48;5.00;;;2.00;;
26822;SDS011;14852;51.910;8.878;2023-07-30T13:01:13;4.97;;;2.33;;
26822;SDS011;14852;51.910;8.878;2023-07-30T13:03:39;4.00;;;2.35;;
26822;SDS011;14852;51.910;8.878;2023-07-30T13:06:11;4.83;;;2.37;;
26822;SDS011;14852;51.910;8.878;2023-07-30T13:08:40;3.90;;;2.40;;
26822;SDS011;14852;51.910;8.878;2023-07-30T13:11:06;3.70;;;2.05;;
26822;SDS011;14852;51.910;8.878;2023-07-30T13:13:32;5.50;;;2.50;;
26822;SDS011;14852;51.910;8.878;2023-07-30T13:15:58;4.80;;;2.20;;
26822;SDS011;14852;51.910;8.878;2023-07-30T13:18:26;3.75;;;1.75;;
26822;SDS011;14852;51.910;8.878;2023-07-30T13:20:53;5.25;;;2.47;;
26822;SDS011;14852;51.910;8.878;2023-07-30T13:23:18;5.35;;;2.05;;
26822;SDS011;14852;51.910;8.878;2023-07-30T13:25:44;5.53;;;2.45;;
26822;SDS011;14852;51.910;8.878;2023-07-30T13:28:10;4.07;;;1.95;;
26822;SDS011;14852;51.910;8.878;2023-07-30T13:30:36;3.60;;;1.83;;
26822;SDS011;14852;51.910;8.878;2023-07-30T13:33:02;3.83;;;2.33;;
26822;SDS011;14852;51.910;8.878;2023-07-30T13:35:27;5.72;;;2.30;;
26822;SDS011;14852;51.910;8.878;2023-07-30T13:37:53;2.95;;;2.05;;
26822;SDS011;14852;51.910;8.878;2023-07-30T13:40:19;2.80;;;2.20;;
26822;SDS011;14852;51.910;8.878;2023-07-30T13:42:45;4.35;;;2.30;;
26822;SDS011;14852;51.910;8.878;2023-07-30T13:45:11;5.43;;;2.30;;
26822;SDS011;14852;51.910;8.878;2023-07-30T13:47:36;4.47;;;1.98;;
26822;SDS011;14852;51.910;8.878;2023-07-30T13:50:02;5.60;;;1.85;;
26822;SDS011;14852;51.910;8.878;2023-07-30T13:52:28;3.92;;;1.80;;
26822;SDS011;14852;51.910;8.878;2023-07-30T13:54:54;3.25;;;1.83;;
26822;SDS011;14852;51.910;8.878;2023-07-30T13:57:24;3.13;;;2.38;;
26822;SDS011;14852;51.910;8.878;2023-07-30T13:59:51;6.60;;;2.65;;
26822;SDS011;14852;51.910;8.878;2023-07-30T14:02:17;6.05;;;2.05;;
26822;SDS011;14852;51.910;8.878;2023-07-30T14:04:43;5.05;;;2.22;;
26822;SDS011;14852;51.910;8.878;2023-07-30T14:07:09;4.55;;;1.90;;
26822;SDS011;14852;51.910;8.878;2023-07-30T14:09:34;2.78;;;1.80;;
26822;SDS011;14852;51.910;8.878;2023-07-30T14:12:02;4.65;;;2.20;;
26822;SDS011;14852;51.910;8.878;2023-07-30T14:14:29;5.55;;;2.58;;
26822;SDS011;14852;51.910;8.878;2023-07-30T14:16:54;3.80;;;1.65;;
26822;SDS011;14852;51.910;8.878;2023-07-30T14:19:20;3.63;;;1.80;;
26822;SDS011;14852;51.910;8.878;2023-07-30T14:21:46;3.97;;;1.45;;
26822;SDS011;14852;51.910;8.878;2023-07-30T14:24:12;3.72;;;1.98;;
26822;SDS011;14852;51.910;8.878;2023-07-30T14:26:38;3.53;;;1.60;;
26822;SDS011;14852;51.910;8.878;2023-07-30T14:29:04;2.33;;;1.65;;
26822;SDS011;14852;51.910;8.878;2023-07-30T14:31:30;2.58;;;1.65;;
26822;SDS011;14852;51.910;8.878;2023-07-30T14:33:55;2.53;;;1.40;;
26822;SDS011;14852;51.910;8.878;2023-07-30T14:36:21;3.28;;;2.00;;
26822;SDS011;14852;51.910;8.878;2023-07-30T14:38:47;4.38;;;2.28;;
26822;SDS011;14852;51.910;8.878;2023-07-30T14:41:13;3.10;;;1.73;;
26822;SDS011;14852;51.910;8.878;2023-07-30T14:43:38;3.00;;;1.50;;
26822;SDS011;14852;51.910;8.878;2023-07-30T14:46:04;3.88;;;2.58;;
26822;SDS011;14852;51.910;8.878;2023-07-30T14:48:31;5.25;;;1.85;;
26822;SDS011;14852;51.910;8.878;2023-07-30T14:50:56;4.07;;;2.10;;